createdAt,value
2022-12-27T00:06:09.182Z,3.95
2022-12-27T00:12:32.269Z,3.94
2022-12-27T00:18:52.220Z,3.96
2022-12-27T00:25:15.245Z,3.93
2022-12-27T00:31:35.420Z,3.85
2022-12-27T00:37:58.204Z,3.65
2022-12-27T00:44:18.199Z,3.44
2022-12-27T00:50:41.200Z,3.22
2022-12-27T00:57:01.301Z,3.1
2022-12-27T01:03:24.271Z,3.12
2022-12-27T01:09:44.177Z,3.23
2022-12-27T01:16:07.234Z,3.32
2022-12-27T01:22:27.204Z,3.38
2022-12-27T01:28:50.196Z,3.42
2022-12-27T01:35:10.449Z,3.43
2022-12-27T01:41:33.865Z,3.41
2022-12-27T01:47:54.176Z,3.32
2022-12-27T01:54:17.269Z,3.17
2022-12-27T02:00:37.216Z,3.06
2022-12-27T02:07:00.277Z,2.98
2022-12-27T02:13:20.202Z,2.89
2022-12-27T02:19:43.182Z,2.88
2022-12-27T02:26:03.211Z,2.78
2022-12-27T02:32:26.267Z,2.65
2022-12-27T02:38:46.254Z,2.58
2022-12-27T02:45:09.180Z,2.45
2022-12-27T02:51:29.196Z,2.38
2022-12-27T02:57:52.291Z,2.32
2022-12-27T03:04:12.223Z,2.27
2022-12-27T03:10:35.278Z,2.18
2022-12-27T03:16:55.166Z,2.08
2022-12-27T03:23:18.280Z,2.02
2022-12-27T03:29:38.209Z,2.01
2022-12-27T03:36:01.253Z,1.96
2022-12-27T03:42:21.221Z,1.95
2022-12-27T03:48:44.205Z,1.92
2022-12-27T03:55:04.259Z,1.95
2022-12-27T04:01:27.350Z,1.93
2022-12-27T04:07:47.285Z,1.94
2022-12-27T04:31:48.713Z,1.9
2022-12-27T04:38:08.154Z,1.83
2022-12-27T04:44:31.206Z,1.76
2022-12-27T04:50:51.204Z,1.71
2022-12-27T04:57:14.208Z,1.65
2022-12-27T05:03:34.313Z,1.61
2022-12-27T05:09:57.235Z,1.65
2022-12-27T05:16:17.377Z,1.72
2022-12-27T05:22:40.277Z,1.84
2022-12-27T05:29:00.269Z,1.93
2022-12-27T05:35:23.164Z,2.01
2022-12-27T05:41:43.207Z,2.1
2022-12-27T05:48:06.218Z,2.17
2022-12-27T05:54:26.148Z,2.21
2022-12-27T06:00:49.284Z,2.19
2022-12-27T06:07:09.291Z,2.18
2022-12-27T06:13:32.219Z,2.17
2022-12-27T06:19:56.749Z,2.15
2022-12-27T06:26:15.328Z,2.1
2022-12-27T06:32:35.266Z,2.07
2022-12-27T06:38:58.239Z,2.04
2022-12-27T06:45:18.215Z,1.98
2022-12-27T06:51:41.156Z,1.93
2022-12-27T06:58:01.253Z,1.96
2022-12-27T07:04:24.234Z,2.02
2022-12-27T07:10:44.172Z,2.1
2022-12-27T07:17:07.166Z,2.2
2022-12-27T07:23:27.194Z,2.28
2022-12-27T07:29:50.243Z,2.34
2022-12-27T07:36:10.181Z,2.41
2022-12-27T07:42:33.272Z,2.43
2022-12-27T07:48:53.251Z,2.39
2022-12-27T07:55:16.297Z,2.39
2022-12-27T08:01:36.271Z,2.38
2022-12-27T08:07:59.160Z,2.44
2022-12-27T08:14:19.249Z,2.52
2022-12-27T08:20:42.219Z,2.63
2022-12-27T08:27:02.167Z,2.77
2022-12-27T08:33:25.225Z,2.9
2022-12-27T08:39:45.314Z,3.06
2022-12-27T08:46:08.275Z,3.2
2022-12-27T08:52:28.205Z,3.38
2022-12-27T08:58:51.260Z,3.62
2022-12-27T09:05:11.159Z,3.99
2022-12-27T09:11:34.221Z,4.37
2022-12-27T09:17:54.226Z,4.67
2022-12-27T09:24:17.148Z,4.91
2022-12-27T09:40:24.128Z,5.53
2022-12-27T09:46:44.407Z,5.83
2022-12-27T09:53:07.168Z,6.11
2022-12-27T09:59:27.209Z,6.42
2022-12-27T10:05:54.714Z,6.69
2022-12-27T10:12:10.304Z,6.81
2022-12-27T10:18:33.264Z,6.86
2022-12-27T10:24:53.217Z,6.99
2022-12-27T10:31:16.245Z,7.17
2022-12-27T10:37:36.281Z,7.33
2022-12-27T10:43:59.235Z,7.59
2022-12-27T10:50:19.291Z,7.85
2022-12-27T10:56:42.243Z,8.13
2022-12-27T11:03:02.216Z,8.45
2022-12-27T11:09:25.169Z,8.56
2022-12-27T11:15:45.279Z,8.47
2022-12-27T11:22:08.171Z,8.42
2022-12-27T11:28:28.186Z,8.42
2022-12-27T11:34:51.241Z,8.46
2022-12-27T11:41:11.213Z,8.58
2022-12-27T11:47:34.181Z,8.96
2022-12-27T11:53:56.357Z,9.03
2022-12-27T12:00:17.451Z,8.97
2022-12-27T12:06:37.183Z,8.85
2022-12-27T12:13:00.197Z,8.78
2022-12-27T12:19:20.232Z,8.69
2022-12-27T12:25:43.217Z,8.65
2022-12-27T12:32:03.294Z,8.69
2022-12-27T12:38:26.177Z,8.8
2022-12-27T12:44:46.220Z,8.85
2022-12-27T12:51:09.455Z,8.82
2022-12-27T12:57:30.192Z,8.89
2022-12-27T13:03:53.207Z,9
2022-12-27T13:10:13.207Z,9.31
2022-12-27T13:16:36.310Z,9.55
2022-12-27T13:22:56.248Z,9.72
2022-12-27T13:29:19.234Z,9.67
2022-12-27T13:35:39.234Z,9.61
2022-12-27T13:42:02.184Z,9.59
2022-12-27T13:48:22.408Z,9.61
2022-12-27T13:54:45.164Z,9.6
2022-12-27T14:01:05.278Z,9.67
2022-12-27T14:07:28.242Z,9.7
2022-12-27T14:13:48.169Z,9.75
2022-12-27T14:20:11.194Z,9.72
2022-12-27T14:26:31.203Z,9.61
2022-12-27T14:32:54.209Z,9.55
2022-12-27T14:55:21.171Z,9.04
2022-12-27T15:01:44.205Z,8.88
2022-12-27T15:08:04.184Z,8.72
2022-12-27T15:14:27.475Z,8.58
2022-12-27T15:20:47.214Z,8.47
2022-12-27T15:27:12.924Z,8.39
2022-12-27T15:33:30.297Z,8.26
2022-12-27T15:39:53.253Z,8.12
2022-12-27T15:46:13.244Z,7.98
2022-12-27T15:52:36.503Z,7.85
2022-12-27T15:58:56.237Z,7.73
2022-12-27T16:05:19.186Z,7.63
2022-12-27T16:11:39.228Z,7.5
2022-12-27T16:18:02.160Z,7.39
2022-12-27T16:24:22.292Z,7.28
2022-12-27T16:30:45.277Z,7.17
2022-12-27T16:37:05.269Z,7.09
2022-12-27T16:43:28.198Z,6.99
2022-12-27T16:49:48.212Z,6.89
2022-12-27T16:56:11.250Z,6.8
2022-12-27T17:02:31.285Z,6.69
2022-12-27T17:08:54.351Z,6.62
2022-12-27T17:15:14.281Z,6.56
2022-12-27T17:21:37.451Z,6.49
2022-12-27T17:27:57.251Z,6.41
2022-12-27T17:34:20.197Z,6.33
2022-12-27T17:40:40.301Z,6.21
2022-12-27T17:47:03.293Z,6.09
2022-12-27T17:53:23.162Z,5.96
2022-12-27T17:59:46.217Z,5.83
2022-12-27T18:06:06.174Z,5.7
2022-12-27T18:12:29.260Z,5.64
2022-12-27T18:18:49.202Z,5.59
2022-12-27T18:25:12.241Z,5.62
2022-12-27T18:31:32.281Z,5.61
2022-12-27T18:37:55.251Z,5.57
2022-12-27T18:44:15.206Z,5.53
2022-12-27T18:50:38.236Z,5.48
2022-12-27T18:56:58.168Z,5.44
2022-12-27T19:03:21.341Z,5.36
2022-12-27T19:09:41.163Z,5.22
2022-12-27T19:16:04.230Z,5.07
2022-12-27T19:22:24.203Z,4.95
2022-12-27T19:28:47.157Z,4.82
2022-12-27T19:35:07.244Z,4.63
2022-12-27T19:41:30.199Z,4.41
2022-12-27T19:58:23.163Z,4.03
2022-12-27T20:04:46.141Z,3.92
2022-12-27T20:11:06.312Z,3.83
2022-12-27T20:17:29.269Z,3.8
2022-12-27T20:23:49.239Z,3.76
2022-12-27T20:30:12.265Z,3.72
2022-12-27T20:36:32.196Z,3.65
2022-12-27T20:42:55.161Z,3.51
2022-12-27T20:49:15.181Z,3.38
2022-12-27T20:55:38.264Z,3.31
2022-12-27T21:01:58.529Z,3.26
2022-12-27T21:08:21.176Z,3.21
2022-12-27T21:14:41.329Z,3.18
2022-12-27T21:21:04.275Z,3.2
2022-12-27T21:27:24.164Z,3.24
2022-12-27T21:33:47.233Z,3.22
2022-12-27T21:40:07.144Z,3.19
2022-12-27T21:46:30.332Z,3.14
2022-12-27T21:52:50.339Z,3.13
2022-12-27T21:59:13.249Z,3.1
2022-12-27T22:05:33.287Z,3.08
2022-12-27T22:11:56.249Z,3.01
2022-12-27T22:18:16.384Z,2.95
2022-12-27T22:24:39.250Z,2.98
2022-12-27T22:30:59.240Z,3.02
2022-12-27T22:37:22.229Z,3.03
2022-12-27T22:43:42.191Z,3.06
2022-12-27T22:50:05.311Z,3.04
2022-12-27T22:56:25.228Z,3.01
2022-12-27T23:21:19.612Z,3.35
2022-12-27T23:27:02.189Z,3.36
2022-12-27T23:33:25.149Z,3.37
2022-12-27T23:39:45.230Z,3.4
2022-12-27T23:46:08.279Z,3.41
2022-12-27T23:52:28.194Z,3.45
2022-12-27T23:58:51.262Z,3.5
